Time;durP1;ratioP1;P1;durP2;ratioP2;P2;SDS_P1;SDS_P2;PMS_P1;PMS_P2;Temp;Humidity;BMP_temperature;BMP_pressure;BME280_temperature;BME280_humidity;BME280_pressure;Samples;Min_cycle;Max_cycle;Signal;HPM_P1;HPM_P2
2022/09/08 00:02:41;0.00;0.00;0.62;0.00;0.00;0.62;4.17;3.43;;;26.90;37.00;;;;;;2233866;62;20588;-61
2022/09/08 00:05:27;0.00;0.00;0.62;0.00;0.00;0.62;4.20;3.80;;;26.90;37.10;;;;;;2233911;62;20588;-62
2022/09/08 00:08:12;0.00;0.00;0.62;0.00;0.00;0.62;3.53;3.23;;;26.80;37.50;;;;;;2233709;62;20432;-62
2022/09/08 00:11:02;0.00;0.00;0.62;0.00;0.00;0.62;5.30;3.90;;;26.90;37.10;;;;;;2233278;62;20413;-61
2022/09/08 00:13:47;0.00;0.00;0.62;0.00;0.00;0.62;4.40;3.70;;;26.90;37.10;;;;;;2233656;62;20373;-62
2022/09/08 00:16:33;0.00;0.00;0.62;0.00;0.00;0.62;3.57;3.27;;;26.90;37.00;;;;;;2233379;62;20637;-62
2022/09/08 00:19:18;0.00;0.00;0.62;0.00;0.00;0.62;5.40;3.70;;;27.00;37.00;;;;;;2233435;62;20768;-62
2022/09/08 00:22:02;0.00;0.00;0.62;0.00;0.00;0.62;5.17;3.70;;;27.00;37.00;;;;;;2234171;62;20478;-60
2022/09/08 00:24:47;0.00;0.00;0.62;0.00;0.00;0.62;3.87;3.57;;;27.00;37.00;;;;;;2233766;62;20389;-62
2022/09/08 00:27:33;0.00;0.00;0.62;0.00;0.00;0.62;4.93;3.60;;;27.10;37.00;;;;;;2233268;62;20371;-62
2022/09/08 00:30:18;0.00;0.00;0.62;0.00;0.00;0.62;4.13;3.50;;;27.20;37.00;;;;;;2233558;62;20415;-62
2022/09/08 00:33:04;0.00;0.00;0.62;0.00;0.00;0.62;3.20;2.90;;;27.20;37.00;;;;;;2233302;62;20379;-62
2022/09/08 00:35:51;0.00;0.00;0.62;0.00;0.00;0.62;4.10;3.70;;;27.20;36.90;;;;;;2233672;62;20405;-62
2022/09/08 00:38:36;0.00;0.00;0.62;0.00;0.00;0.62;4.10;3.80;;;27.30;36.90;;;;;;2233454;62;20405;-62
2022/09/08 00:41:23;0.00;0.00;0.62;0.00;0.00;0.62;5.80;3.10;;;27.30;36.80;;;;;;2233321;62;20380;-62
2022/09/08 00:44:48;0.00;0.00;0.62;0.00;0.00;0.62;4.17;3.70;;;27.40;36.90;;;;;;2234020;62;20360;-62
2022/09/08 00:47:38;0.00;0.00;0.62;0.00;0.00;0.62;4.27;3.50;;;27.40;36.70;;;;;;2220571;62;20375;-62
2022/09/08 00:50:26;0.00;0.00;0.62;0.00;0.00;0.62;4.10;3.10;;;27.40;36.60;;;;;;2233370;62;20396;-62
2022/09/08 00:53:15;0.00;0.00;0.62;0.00;0.00;0.62;3.43;3.13;;;27.50;36.60;;;;;;2233505;62;20632;-62
2022/09/08 00:56:05;0.00;0.00;0.62;0.00;0.00;0.62;3.70;3.40;;;27.50;36.50;;;;;;2233438;62;20372;-63
2022/09/08 00:58:50;0.00;0.00;0.62;0.00;0.00;0.62;3.73;3.43;;;27.60;36.50;;;;;;2233712;62;20368;-62
2022/09/08 01:01:36;0.00;0.00;0.62;0.00;0.00;0.62;3.03;2.73;;;27.60;36.40;;;;;;2233314;62;20400;-61
2022/09/08 01:04:21;0.00;0.00;0.62;0.00;0.00;0.62;3.30;2.97;;;27.70;37.00;;;;;;2233107;62;20372;-62
2022/09/08 01:13:32;0.00;0.00;0.62;0.00;0.00;0.62;3.33;3.03;;;27.80;36.20;;;;;;2233652;62;20671;-62
2022/09/08 01:16:17;0.00;0.00;0.62;0.00;0.00;0.62;3.50;3.10;;;27.80;36.20;;;;;;2233306;62;20368;-62
2022/09/08 01:19:04;0.00;0.00;0.62;0.00;0.00;0.62;4.13;3.57;;;27.80;36.10;;;;;;2232941;62;20363;-62
2022/09/08 01:22:06;0.00;0.00;0.62;0.00;0.00;0.62;3.03;2.60;;;27.90;36.10;;;;;;2234151;62;20796;-62
2022/09/08 01:24:55;0.00;0.00;0.62;0.00;0.00;0.62;4.13;3.70;;;27.90;36.00;;;;;;2233723;62;20367;-62
2022/09/08 01:27:47;0.00;0.00;0.62;0.00;0.00;0.62;3.70;3.33;;;27.90;36.10;;;;;;2234167;62;20409;-63
2022/09/08 01:30:33;0.00;0.00;0.62;0.00;0.00;0.62;3.50;3.20;;;27.90;36.00;;;;;;2233939;62;20396;-61
2022/09/08 01:33:19;0.00;0.00;0.62;0.00;0.00;0.62;4.20;3.80;;;28.00;36.00;;;;;;2233938;62;20376;-62
2022/09/08 01:36:08;0.00;0.00;0.62;0.00;0.00;0.62;4.03;3.63;;;28.00;36.70;;;;;;2234479;62;20620;-61
2022/09/08 01:38:53;0.00;0.00;0.62;0.00;0.00;0.62;5.60;4.07;;;28.00;36.00;;;;;;2234072;62;20725;-62
2022/09/08 01:41:38;0.00;0.00;0.62;0.00;0.00;0.62;4.30;3.83;;;28.00;36.00;;;;;;2233957;62;20429;-62
2022/09/08 01:44:25;0.00;0.00;0.62;0.00;0.00;0.62;3.70;3.40;;;28.00;36.00;;;;;;2234219;62;20364;-61
2022/09/08 01:47:10;0.00;0.00;0.62;0.00;0.00;0.62;4.20;3.80;;;28.00;36.00;;;;;;2236044;62;20368;-62
2022/09/08 01:49:55;0.00;0.00;0.62;0.00;0.00;0.62;4.73;3.83;;;28.00;35.90;;;;;;2236204;62;20409;-62
2022/09/08 01:52:39;0.00;0.00;0.62;0.00;0.00;0.62;4.20;3.80;;;28.00;35.90;;;;;;2233875;62;20477;-60
2022/09/08 01:55:24;0.00;0.00;0.62;0.00;0.00;0.62;5.37;4.70;;;28.00;35.90;;;;;;2234031;62;20412;-62
2022/09/08 01:58:09;0.00;0.00;0.62;0.00;0.00;0.62;4.67;4.27;;;28.00;35.90;;;;;;2234352;62;20572;-62
2022/09/08 02:00:57;0.00;0.00;0.62;0.00;0.00;0.62;4.70;4.20;;;28.00;35.90;;;;;;2233827;62;20452;-62
2022/09/08 02:03:42;0.00;0.00;0.62;0.00;0.00;0.62;4.13;3.60;;;27.90;35.80;;;;;;2233758;62;20707;-62
2022/09/08 02:06:27;0.00;0.00;0.62;0.00;0.00;0.62;4.40;3.90;;;27.90;35.80;;;;;;2233981;62;20413;-62
2022/09/08 02:09:12;0.00;0.00;0.62;0.00;0.00;0.62;4.03;3.57;;;27.90;35.90;;;;;;2233629;62;20421;-62
2022/09/08 02:11:57;0.00;0.00;0.62;0.00;0.00;0.62;4.27;3.87;;;27.90;35.80;;;;;;2234029;62;20369;-61
2022/09/08 02:14:42;0.00;0.00;0.62;0.00;0.00;0.62;3.80;3.50;;;27.90;35.80;;;;;;2233780;62;20437;-61
2022/09/08 02:17:30;0.00;0.00;0.62;0.00;0.00;0.62;4.43;4.03;;;27.90;35.80;;;;;;2233882;62;20368;-61
2022/09/08 02:20:15;0.00;0.00;0.62;0.00;0.00;0.62;4.33;4.03;;;27.90;35.80;;;;;;2234080;62;20389;-61
2022/09/08 02:23:00;0.00;0.00;0.62;0.00;0.00;0.62;3.70;3.40;;;27.90;35.80;;;;;;2233535;62;20360;-62
2022/09/08 02:25:44;0.00;0.00;0.62;0.00;0.00;0.62;3.80;3.50;;;27.90;35.80;;;;;;2233647;62;20360;-62
2022/09/08 02:28:30;0.00;0.00;0.62;0.00;0.00;0.62;5.63;3.77;;;27.90;35.70;;;;;;2233846;62;20407;-62
2022/09/08 02:31:14;0.00;0.00;0.62;0.00;0.00;0.62;5.00;4.60;;;28.00;35.70;;;;;;2233609;62;20505;-62
2022/09/08 02:34:01;0.00;0.00;0.62;0.00;0.00;0.62;5.23;4.20;;;28.00;35.70;;;;;;2234027;62;20620;-62
2022/09/08 02:36:46;0.00;0.00;0.62;0.00;0.00;0.62;8.23;3.83;;;27.90;35.70;;;;;;2233975;62;20466;-62
2022/09/08 02:39:31;0.00;0.00;0.62;0.00;0.00;0.62;4.23;3.83;;;27.90;35.70;;;;;;2233600;62;20369;-61
2022/09/08 02:42:16;0.00;0.00;0.62;0.00;0.00;0.62;3.60;3.30;;;28.00;35.60;;;;;;2233879;62;21033;-61
2022/09/08 02:45:02;0.00;0.00;0.62;0.00;0.00;0.62;4.50;3.63;;;28.00;35.60;;;;;;2233999;62;20413;-61
2022/09/08 02:47:47;0.00;0.00;0.62;0.00;0.00;0.62;6.00;3.90;;;28.00;35.60;;;;;;2235788;62;20727;-66
2022/09/08 02:50:33;0.00;0.00;0.62;0.00;0.00;0.62;7.10;4.23;;;28.00;35.60;;;;;;2233982;62;20404;-62
2022/09/08 02:53:18;0.00;0.00;0.62;0.00;0.00;0.62;4.03;3.63;;;28.00;35.60;;;;;;2233632;62;20376;-62
2022/09/08 02:56:03;0.00;0.00;0.62;0.00;0.00;0.62;4.17;3.77;;;28.00;35.50;;;;;;2233852;62;20632;-62
2022/09/08 02:58:48;0.00;0.00;0.62;0.00;0.00;0.62;4.40;4.00;;;28.10;35.50;;;;;;2233797;62;20383;-62
2022/09/08 03:01:33;0.00;0.00;0.62;0.00;0.00;0.62;3.50;3.13;;;28.10;35.50;;;;;;2233558;62;20419;-62
2022/09/08 03:04:18;0.00;0.00;0.62;0.00;0.00;0.62;4.47;4.07;;;28.10;35.40;;;;;;2233988;62;20583;-62
2022/09/08 03:07:04;0.00;0.00;0.62;0.00;0.00;0.62;4.03;3.70;;;28.10;35.40;;;;;;2233730;62;20409;-62
2022/09/08 03:09:51;0.00;0.00;0.62;0.00;0.00;0.62;4.33;3.93;;;28.10;35.40;;;;;;2233191;62;20400;-62
2022/09/08 03:12:36;0.00;0.00;0.62;0.00;0.00;0.62;4.43;3.77;;;28.10;35.40;;;;;;2233947;62;20388;-61
2022/09/08 03:15:23;0.00;0.00;0.62;0.00;0.00;0.62;4.33;3.93;;;28.10;35.40;;;;;;2233664;62;20409;-61
2022/09/08 03:18:08;0.00;0.00;0.62;0.00;0.00;0.62;4.67;4.20;;;28.10;35.40;;;;;;2233723;62;20412;-62
2022/09/08 03:21:01;0.00;0.00;0.62;0.00;0.00;0.62;4.70;4.30;;;28.10;35.40;;;;;;2233652;62;20451;-62
2022/09/08 03:23:48;0.00;0.00;0.62;0.00;0.00;0.62;5.17;3.90;;;28.10;35.40;;;;;;2233763;62;20642;-61
2022/09/08 03:26:33;0.00;0.00;0.62;0.00;0.00;0.62;7.10;4.23;;;28.10;35.40;;;;;;2233912;62;20364;-62
2022/09/08 03:29:18;0.00;0.00;0.62;0.00;0.00;0.62;6.30;5.17;;;28.10;35.40;;;;;;2233573;62;20424;-61
2022/09/08 03:32:03;0.00;0.00;0.62;0.00;0.00;0.62;6.30;5.60;;;28.10;35.50;;;;;;2233157;62;20452;-62
2022/09/08 03:34:47;0.00;0.00;0.62;0.00;0.00;0.62;6.83;5.70;;;28.00;35.50;;;;;;2233905;62;20642;-61
2022/09/08 03:37:32;0.00;0.00;0.62;0.00;0.00;0.62;6.60;6.10;;;28.00;35.60;;;;;;2233880;62;20568;-62
2022/09/08 03:40:18;0.00;0.00;0.62;0.00;0.00;0.62;6.57;5.10;;;28.00;35.70;;;;;;2233518;62;20424;-62
2022/09/08 03:43:05;0.00;0.00;0.62;0.00;0.00;0.62;6.53;4.93;;;27.90;35.70;;;;;;2233684;62;20481;-61
2022/09/08 03:45:50;0.00;0.00;0.62;0.00;0.00;0.62;5.40;4.90;;;27.90;35.80;;;;;;2233526;62;20392;-62
2022/09/08 03:48:35;0.00;0.00;0.62;0.00;0.00;0.62;5.00;4.33;;;27.90;35.80;;;;;;2233574;62;20393;-61
2022/09/08 03:51:24;0.00;0.00;0.62;0.00;0.00;0.62;5.00;4.20;;;27.90;35.80;;;;;;2233461;62;20460;-62
2022/09/08 03:57:15;0.00;0.00;0.62;0.00;0.00;0.62;4.67;4.27;;;27.80;35.70;;;;;;2233791;62;20364;-62
2022/09/08 04:00:01;0.00;0.00;0.62;0.00;0.00;0.62;4.93;4.43;;;27.80;35.70;;;;;;2233085;62;20392;-62
2022/09/08 04:02:56;0.00;0.00;0.62;0.00;0.00;0.62;4.70;4.20;;;27.90;35.70;;;;;;2233708;62;20499;-62
2022/09/08 04:05:40;0.00;0.00;0.62;0.00;0.00;0.62;4.10;3.70;;;27.90;35.70;;;;;;2233470;62;20368;-61
2022/09/08 04:08:25;0.00;0.00;0.62;0.00;0.00;0.62;5.20;4.70;;;27.90;35.70;;;;;;2233479;62;20429;-61
2022/09/08 04:11:10;0.00;0.00;0.62;0.00;0.00;0.62;3.83;3.40;;;27.90;35.60;;;;;;2233786;62;20510;-61
2022/09/08 04:13:55;0.00;0.00;0.62;0.00;0.00;0.62;4.53;4.13;;;27.90;35.60;;;;;;2233482;62;20659;-62
2022/09/08 04:16:40;0.00;0.00;0.62;0.00;0.00;0.62;4.70;4.20;;;27.90;35.60;;;;;;2233289;62;20368;-62
2022/09/08 04:19:25;0.00;0.00;0.62;0.00;0.00;0.62;4.13;3.73;;;27.90;35.50;;;;;;2233511;62;20380;-62
2022/09/08 04:22:11;0.00;0.00;0.62;0.00;0.00;0.62;4.63;3.70;;;27.90;36.20;;;;;;2233096;62;20360;-61
2022/09/08 04:24:56;0.00;0.00;0.62;0.00;0.00;0.62;4.07;3.77;;;27.90;35.40;;;;;;2233748;62;20368;-62
2022/09/08 04:27:41;0.00;0.00;0.62;0.00;0.00;0.62;4.40;4.00;;;27.90;35.40;;;;;;2233568;62;20381;-62
2022/09/08 04:30:27;0.00;0.00;0.62;0.00;0.00;0.62;5.13;4.17;;;27.90;35.40;;;;;;2233239;62;20810;-62
2022/09/08 04:33:12;0.00;0.00;0.62;0.00;0.00;0.62;5.50;4.80;;;28.00;35.50;;;;;;2233695;62;20393;-62
2022/09/08 04:35:57;0.00;0.00;0.62;0.00;0.00;0.62;5.37;4.87;;;28.00;35.50;;;;;;2233454;62;20372;-62
2022/09/08 04:38:42;0.00;0.00;0.62;0.00;0.00;0.62;4.80;4.40;;;27.90;35.40;;;;;;2233022;62;20495;-62
2022/09/08 04:41:30;0.00;0.00;0.62;0.00;0.00;0.62;5.27;4.77;;;28.00;35.50;;;;;;2233421;62;20598;-61
2022/09/08 04:44:15;0.00;0.00;0.62;0.00;0.00;0.62;7.00;5.97;;;28.00;35.40;;;;;;2233329;62;20821;-62
2022/09/08 04:47:01;0.00;0.00;0.62;0.00;0.00;0.62;5.60;5.10;;;28.00;35.50;;;;;;2233568;62;20400;-62
2022/09/08 04:49:46;0.00;0.00;0.62;0.00;0.00;0.62;7.00;5.93;;;28.00;35.50;;;;;;2233393;62;20405;-61
2022/09/08 04:52:31;0.00;0.00;0.62;0.00;0.00;0.62;5.77;4.90;;;28.00;35.50;;;;;;2233628;62;20400;-62
2022/09/08 04:55:16;0.00;0.00;0.62;0.00;0.00;0.62;5.60;5.00;;;28.00;35.50;;;;;;2233508;62;20368;-61
2022/09/08 04:58:01;0.00;0.00;0.62;0.00;0.00;0.62;5.80;5.20;;;28.00;35.50;;;;;;2233413;62;20448;-62
2022/09/08 05:00:45;0.00;0.00;0.62;0.00;0.00;0.62;5.63;5.10;;;28.00;35.40;;;;;;2232973;62;20760;-61
2022/09/08 05:03:32;0.00;0.00;0.62;0.00;0.00;0.62;6.73;5.73;;;28.00;35.50;;;;;;2233551;62;20625;-61
2022/09/08 05:06:17;0.00;0.00;0.62;0.00;0.00;0.62;7.47;6.00;;;28.00;35.50;;;;;;2233752;62;20388;-61
2022/09/08 05:09:05;0.00;0.00;0.62;0.00;0.00;0.62;6.00;5.47;;;28.00;35.50;;;;;;2233342;62;20388;-61
2022/09/08 05:11:50;0.00;0.00;0.62;0.00;0.00;0.62;5.53;4.93;;;28.00;35.50;;;;;;2233502;62;20765;-62
2022/09/08 05:14:35;0.00;0.00;0.62;0.00;0.00;0.62;6.20;5.60;;;28.00;35.40;;;;;;2233351;62;20371;-61
2022/09/08 05:17:19;0.00;0.00;0.62;0.00;0.00;0.62;6.80;6.20;;;28.00;36.00;;;;;;2233632;62;20716;-61
2022/09/08 05:20:07;0.00;0.00;0.62;0.00;0.00;0.62;6.17;5.67;;;28.00;35.40;;;;;;2233238;62;20387;-61
2022/09/08 05:22:52;0.00;0.00;0.62;0.00;0.00;0.62;5.87;5.30;;;28.00;35.40;;;;;;2233022;62;20701;-61
2022/09/08 05:25:37;0.00;0.00;0.62;0.00;0.00;0.62;6.53;5.93;;;28.00;35.40;;;;;;2233768;62;20417;-61
2022/09/08 05:28:22;0.00;0.00;0.62;0.00;0.00;0.62;6.47;5.97;;;28.00;35.40;;;;;;2235878;62;20649;-61
2022/09/08 05:31:12;0.00;0.00;0.62;0.00;0.00;0.62;5.77;5.27;;;28.00;35.30;;;;;;2233357;62;20465;-61
2022/09/08 05:33:58;0.00;0.00;0.62;0.00;0.00;0.62;5.90;5.40;;;28.00;35.40;;;;;;2233569;62;20363;-61
2022/09/08 05:36:44;0.00;0.00;0.62;0.00;0.00;0.62;6.07;5.47;;;28.00;35.30;;;;;;2233205;62;20409;-61
2022/09/08 05:39:29;0.00;0.00;0.62;0.00;0.00;0.62;6.23;5.63;;;28.00;35.30;;;;;;2233293;62;20436;-62
2022/09/08 05:42:14;0.00;0.00;0.62;0.00;0.00;0.62;6.80;6.20;;;28.00;35.30;;;;;;2235573;62;20368;-61
2022/09/08 05:44:58;0.00;0.00;0.62;0.00;0.00;0.62;6.90;6.30;;;28.00;35.40;;;;;;2233111;62;20708;-61
2022/09/08 05:47:43;0.00;0.00;0.62;0.00;0.00;0.62;7.47;6.87;;;28.00;35.40;;;;;;2233830;62;20373;-62
2022/09/08 05:50:33;0.00;0.00;0.62;0.00;0.00;0.62;8.40;7.60;;;28.00;35.50;;;;;;2233307;62;20441;-62
2022/09/08 05:53:20;0.00;0.00;0.62;0.00;0.00;0.62;7.03;6.43;;;27.90;35.40;;;;;;2233600;62;20720;-62
2022/09/08 05:56:06;0.00;0.00;0.62;0.00;0.00;0.62;7.37;6.70;;;28.00;35.50;;;;;;2233524;62;20729;-61
2022/09/08 05:58:53;0.00;0.00;0.62;0.00;0.00;0.62;8.73;7.40;;;28.00;35.50;;;;;;2232860;62;20450;-60
2022/09/08 06:01:38;0.00;0.00;0.62;0.00;0.00;0.62;7.03;6.53;;;27.90;35.50;;;;;;2233330;62;20433;-62
2022/09/08 06:04:23;0.00;0.00;0.62;0.00;0.00;0.62;6.90;6.20;;;27.90;35.40;;;;;;2233258;62;20589;-61
2022/09/08 06:07:08;0.00;0.00;0.62;0.00;0.00;0.62;6.87;6.27;;;28.00;35.50;;;;;;2233867;62;20380;-61
2022/09/08 06:09:54;0.00;0.00;0.62;0.00;0.00;0.62;6.80;6.20;;;28.00;35.50;;;;;;2234247;62;20525;-61
2022/09/08 06:12:39;0.00;0.00;0.62;0.00;0.00;0.62;7.80;7.10;;;28.00;35.50;;;;;;2234064;62;20376;-62
2022/09/08 06:15:23;0.00;0.00;0.62;0.00;0.00;0.62;9.60;8.60;;;28.00;35.50;;;;;;2233892;62;20413;-61
2022/09/08 06:18:08;0.00;0.00;0.62;0.00;0.00;0.62;9.70;8.70;;;28.00;35.50;;;;;;2234123;62;20369;-61
2022/09/08 06:20:52;0.00;0.00;0.62;0.00;0.00;0.62;11.83;8.07;;;28.00;35.70;;;;;;2233324;62;20659;-61
2022/09/08 06:23:37;0.00;0.00;0.62;0.00;0.00;0.62;9.43;8.63;;;27.90;35.60;;;;;;2234082;62;20590;-61
2022/09/08 06:26:58;0.00;0.00;0.62;0.00;0.00;0.62;9.40;8.60;;;27.90;35.60;;;;;;2233861;62;20404;-62
2022/09/08 06:29:58;0.00;0.00;0.62;0.00;0.00;0.62;10.33;9.40;;;27.90;35.80;;;;;;2233411;62;20395;-62
2022/09/08 06:32:48;0.00;0.00;0.62;0.00;0.00;0.62;10.53;9.30;;;27.90;35.90;;;;;;2234034;62;20388;-63
2022/09/08 06:35:39;0.00;0.00;0.62;0.00;0.00;0.62;9.07;8.30;;;27.80;35.90;;;;;;2233820;62;20364;-62
2022/09/08 06:38:31;0.00;0.00;0.62;0.00;0.00;0.62;11.23;10.07;;;27.80;36.00;;;;;;2234019;62;20409;-65
2022/09/08 06:41:21;0.00;0.00;0.62;0.00;0.00;0.62;10.60;8.90;;;27.80;36.10;;;;;;2233256;62;20404;-67
2022/09/08 06:44:16;0.00;0.00;0.62;0.00;0.00;0.62;9.90;8.90;;;27.70;36.10;;;;;;2230083;62;20381;-64
2022/09/08 06:47:02;0.00;0.00;0.62;0.00;0.00;0.62;10.10;9.00;;;27.70;36.20;;;;;;2230396;62;20377;-65
2022/09/08 06:49:47;0.00;0.00;0.62;0.00;0.00;0.62;11.40;10.40;;;27.70;36.30;;;;;;2232070;62;20444;-63
2022/09/08 06:52:45;0.00;0.00;0.62;0.00;0.00;0.62;10.90;8.23;;;27.70;36.30;;;;;;2233982;62;20409;-63
2022/09/08 06:55:37;0.00;0.00;0.62;0.00;0.00;0.62;9.60;8.70;;;27.70;36.30;;;;;;2233979;62;20367;-65
2022/09/08 06:58:31;0.00;0.00;0.62;0.00;0.00;0.62;9.87;9.03;;;27.70;36.40;;;;;;2233630;62;20407;-64
2022/09/08 07:01:22;0.00;0.00;0.62;0.00;0.00;0.62;10.53;9.13;;;27.70;36.40;;;;;;2613411;46;20372;-66
2022/09/08 07:04:21;0.00;0.00;0.62;0.00;0.00;0.62;10.90;9.83;;;27.70;36.40;;;;;;2463924;54;20451;-65
2022/09/08 07:07:19;0.00;0.00;0.62;0.00;0.00;0.62;9.10;8.17;;;27.70;36.60;;;;;;2233612;62;20628;-65
2022/09/08 07:10:11;0.00;0.00;0.62;0.00;0.00;0.62;10.07;9.03;;;27.70;36.60;;;;;;2233685;62;20656;-64
2022/09/08 07:13:05;0.00;0.00;0.62;0.00;0.00;0.62;9.63;8.80;;;27.70;36.60;;;;;;2233419;62;20448;-62
2022/09/08 07:16:03;0.00;0.00;0.62;0.00;0.00;0.62;9.03;8.13;;;27.60;36.50;;;;;;2236221;62;20364;-65
2022/09/08 07:18:54;0.00;0.00;0.62;0.00;0.00;0.62;9.03;8.20;;;27.70;36.60;;;;;;2233373;62;20724;-63
2022/09/08 07:21:48;0.00;0.00;0.62;0.00;0.00;0.62;8.37;7.57;;;27.70;36.50;;;;;;2233434;62;20396;-68
2022/09/08 07:24:37;0.00;0.00;0.62;0.00;0.00;0.62;8.83;8.03;;;27.70;36.50;;;;;;2233716;62;20384;-63
2022/09/08 07:27:23;0.00;0.00;0.62;0.00;0.00;0.62;10.63;9.63;;;27.70;37.10;;;;;;2233448;62;20388;-66
2022/09/08 07:30:15;0.00;0.00;0.62;0.00;0.00;0.62;10.20;9.30;;;27.70;36.50;;;;;;2230868;62;20652;-63
2022/09/08 07:33:10;0.00;0.00;0.62;0.00;0.00;0.62;9.50;8.60;;;27.70;36.60;;;;;;2229745;62;20365;-67
2022/09/08 07:36:10;0.00;0.00;0.62;0.00;0.00;0.62;9.20;8.40;;;27.70;36.50;;;;;;2229465;62;20389;-66
2022/09/08 07:38:59;0.00;0.00;0.62;0.00;0.00;0.62;9.43;8.30;;;27.70;36.60;;;;;;2230425;62;20586;-62
2022/09/08 07:41:48;0.00;0.00;0.62;0.00;0.00;0.62;8.70;7.90;;;27.70;36.50;;;;;;2233755;62;20470;-66
2022/09/08 07:44:34;0.00;0.00;0.62;0.00;0.00;0.62;10.57;9.67;;;27.70;36.50;;;;;;2233703;62;20440;-65
2022/09/08 07:47:44;0.00;0.00;0.62;0.00;0.00;0.62;12.33;8.97;;;27.80;36.50;;;;;;2233801;62;20417;-67
2022/09/08 07:50:54;0.00;0.00;0.62;0.00;0.00;0.62;11.27;10.30;;;27.80;36.50;;;;;;2233317;62;20451;-67
2022/09/08 07:54:04;0.00;0.00;0.62;0.00;0.00;0.62;11.33;10.33;;;27.80;36.60;;;;;;2233746;62;20441;-67
2022/09/08 07:56:57;0.00;0.00;0.62;0.00;0.00;0.62;10.60;9.60;;;27.80;36.70;;;;;;2233457;62;20368;-67
2022/09/08 07:59:51;0.00;0.00;0.62;0.00;0.00;0.62;13.43;12.17;;;27.70;36.70;;;;;;2233440;62;20652;-66
2022/09/08 08:03:08;0.00;0.00;0.62;0.00;0.00;0.62;11.13;10.13;;;27.70;36.80;;;;;;2233424;62;20653;-68
2022/09/08 08:06:04;0.00;0.00;0.62;0.00;0.00;0.62;10.83;9.73;;;27.70;36.90;;;;;;2233211;62;20373;-64
2022/09/08 08:08:59;0.00;0.00;0.62;0.00;0.00;0.62;12.23;10.93;;;27.70;37.00;;;;;;2233575;62;20682;-64
2022/09/08 08:11:53;0.00;0.00;0.62;0.00;0.00;0.62;10.80;9.70;;;27.60;37.70;;;;;;2233297;62;20603;-65
2022/09/08 08:14:46;0.00;0.00;0.62;0.00;0.00;0.62;11.67;10.53;;;27.60;37.00;;;;;;2233613;62;20724;-65
2022/09/08 08:17:39;0.00;0.00;0.62;0.00;0.00;0.62;11.67;10.47;;;27.60;37.10;;;;;;2233349;62;20364;-65
2022/09/08 08:20:39;0.00;0.00;0.62;0.00;0.00;0.62;12.37;11.17;;;27.60;37.10;;;;;;2232666;62;20397;-65
2022/09/08 08:24:00;0.00;0.00;0.62;0.00;0.00;0.62;10.30;9.37;;;27.50;37.10;;;;;;2233621;62;20404;-66
2022/09/08 08:26:54;0.00;0.00;0.62;0.00;0.00;0.62;9.77;8.90;;;27.50;37.20;;;;;;2233287;62;20755;-62
2022/09/08 08:30:00;0.00;0.00;0.62;0.00;0.00;0.62;8.67;7.87;;;27.50;37.30;;;;;;2232894;62;20396;-63
2022/09/08 08:32:53;0.00;0.00;0.62;0.00;0.00;0.62;8.40;7.60;;;27.40;38.00;;;;;;2233442;62;20416;-68
2022/09/08 08:35:45;0.00;0.00;0.62;0.00;0.00;0.62;9.63;8.83;;;27.40;37.30;;;;;;2233199;62;20369;-64
2022/09/08 08:38:42;0.00;0.00;0.62;0.00;0.00;0.62;10.40;9.40;;;27.40;37.40;;;;;;2233621;62;20364;-67
2022/09/08 08:41:40;0.00;0.00;0.62;0.00;0.00;0.62;10.70;8.20;;;27.40;37.50;;;;;;2233082;62;20421;-64
2022/09/08 08:44:42;0.00;0.00;0.62;0.00;0.00;0.62;9.13;7.50;;;27.40;37.60;;;;;;2233596;62;20368;-63
2022/09/08 08:47:42;0.00;0.00;0.62;0.00;0.00;0.62;9.87;8.83;;;27.40;37.50;;;;;;2233394;62;20371;-66
2022/09/08 08:51:13;0.00;0.00;0.62;0.00;0.00;0.62;9.60;7.93;;;27.40;37.50;;;;;;2232948;62;20864;-64
2022/09/08 08:54:32;0.00;0.00;0.62;0.00;0.00;0.62;8.40;7.50;;;27.30;37.50;;;;;;2233646;62;20403;-65
2022/09/08 08:57:39;0.00;0.00;0.62;0.00;0.00;0.62;11.10;8.47;;;27.30;37.60;;;;;;2230731;62;20375;-63
2022/09/08 09:00:32;0.00;0.00;0.62;0.00;0.00;0.62;7.60;7.00;;;27.30;37.70;;;;;;2230206;62;20519;-63
2022/09/08 09:03:49;0.00;0.00;0.62;0.00;0.00;0.62;8.90;8.00;;;27.20;37.70;;;;;;2229093;62;20373;-63
2022/09/08 09:07:06;0.00;0.00;0.62;0.00;0.00;0.62;8.57;7.70;;;27.20;37.80;;;;;;2231929;62;20376;-63
2022/09/08 09:10:33;0.00;0.00;0.62;0.00;0.00;0.62;8.20;7.40;;;27.20;38.00;;;;;;2231394;62;20456;-64
2022/09/08 09:13:47;0.00;0.00;0.62;0.00;0.00;0.62;10.13;7.90;;;27.10;38.20;;;;;;2233575;62;20788;-65
2022/09/08 09:16:54;0.00;0.00;0.62;0.00;0.00;0.62;8.07;7.30;;;27.10;38.30;;;;;;2235478;62;20368;-64
2022/09/08 09:20:18;0.00;0.00;0.62;0.00;0.00;0.62;9.30;8.10;;;27.00;38.40;;;;;;2231052;62;20376;-64
2022/09/08 09:23:13;0.00;0.00;0.62;0.00;0.00;0.62;7.40;6.70;;;27.00;38.50;;;;;;2229545;62;20365;-63
2022/09/08 09:26:00;0.00;0.00;0.62;0.00;0.00;0.62;7.10;6.50;;;27.00;38.60;;;;;;2229271;62;20398;-63
2022/09/08 09:29:12;0.00;0.00;0.62;0.00;0.00;0.62;7.73;6.13;;;27.00;38.60;;;;;;2229456;62;20805;-64
2022/09/08 09:32:29;0.00;0.00;0.62;0.00;0.00;0.62;10.40;6.17;;;27.00;38.60;;;;;;2229244;62;20608;-64
2022/09/08 09:36:15;0.00;0.00;0.62;0.00;0.00;0.62;6.90;6.30;;;27.00;38.60;;;;;;2229536;62;20361;-63
2022/09/08 09:39:22;0.00;0.00;0.62;0.00;0.00;0.62;6.03;5.53;;;27.00;38.50;;;;;;2218053;62;20585;-68
2022/09/08 09:42:31;0.00;0.00;0.62;0.00;0.00;0.62;6.77;6.20;;;27.00;38.60;;;;;;2229739;62;20794;-68
2022/09/08 09:45:56;0.00;0.00;0.62;0.00;0.00;0.62;5.77;5.27;;;27.00;38.60;;;;;;2230212;62;20789;-63
2022/09/08 09:49:25;0.00;0.00;0.62;0.00;0.00;0.62;6.00;5.50;;;27.00;38.50;;;;;;2230119;62;20376;-63
2022/09/08 09:52:21;0.00;0.00;0.62;0.00;0.00;0.62;5.87;5.10;;;27.00;38.50;;;;;;2234045;62;20410;-63
2022/09/08 09:55:31;0.00;0.00;0.62;0.00;0.00;0.62;6.47;5.87;;;27.00;38.50;;;;;;2233794;62;20360;-64
2022/09/08 09:59:02;0.00;0.00;0.62;0.00;0.00;0.62;6.53;5.63;;;27.00;38.60;;;;;;2236396;62;20364;-64
2022/09/08 10:02:17;0.00;0.00;0.62;0.00;0.00;0.62;6.03;5.40;;;27.00;38.60;;;;;;2233782;62;20436;-63
2022/09/08 10:05:45;0.00;0.00;0.62;0.00;0.00;0.62;5.87;5.30;;;27.00;38.70;;;;;;2236359;62;20368;-63
2022/09/08 10:09:17;0.00;0.00;0.62;0.00;0.00;0.62;5.37;4.70;;;27.00;38.80;;;;;;2233559;62;20367;-63
2022/09/08 10:12:42;0.00;0.00;0.62;0.00;0.00;0.62;5.07;4.57;;;27.00;38.80;;;;;;2233559;62;20372;-63
2022/09/08 10:16:13;0.00;0.00;0.62;0.00;0.00;0.62;5.43;4.87;;;27.00;39.00;;;;;;2234083;62;20364;-63
2022/09/08 10:19:51;0.00;0.00;0.62;0.00;0.00;0.62;4.67;4.20;;;27.00;39.00;;;;;;2233318;62;20376;-63
2022/09/08 10:23:44;0.00;0.00;0.62;0.00;0.00;0.62;5.33;4.53;;;27.00;38.90;;;;;;2233915;62;20559;-64
2022/09/08 10:27:02;0.00;0.00;0.62;0.00;0.00;0.62;5.60;5.00;;;27.00;39.00;;;;;;2230429;62;20379;-68
2022/09/08 10:30:17;0.00;0.00;0.62;0.00;0.00;0.62;4.97;4.47;;;26.90;39.10;;;;;;2230907;62;20786;-65
2022/09/08 10:33:43;0.00;0.00;0.62;0.00;0.00;0.62;5.60;4.77;;;26.90;39.30;;;;;;2236152;62;20393;-66
2022/09/08 10:36:56;0.00;0.00;0.62;0.00;0.00;0.62;5.63;5.00;;;26.90;39.50;;;;;;2234182;62;20581;-64
2022/09/08 10:39:55;0.00;0.00;0.62;0.00;0.00;0.62;5.47;4.97;;;26.90;39.50;;;;;;2231444;62;20745;-66
2022/09/08 10:42:46;0.00;0.00;0.62;0.00;0.00;0.62;5.33;4.83;;;26.80;39.50;;;;;;2230030;62;20407;-67
2022/09/08 10:45:56;0.00;0.00;0.62;0.00;0.00;0.62;4.90;4.40;;;26.80;39.70;;;;;;2232233;62;20399;-66
2022/09/08 10:49:26;0.00;0.00;0.62;0.00;0.00;0.62;5.00;4.50;;;26.80;39.70;;;;;;2229573;62;20361;-69
2022/09/08 10:52:29;0.00;0.00;0.62;0.00;0.00;0.62;8.63;5.17;;;26.80;39.70;;;;;;2229643;62;20368;-63
2022/09/08 10:56:12;0.00;0.00;0.62;0.00;0.00;0.62;5.80;5.20;;;26.80;39.90;;;;;;2229904;62;20369;-66
2022/09/08 10:59:39;0.00;0.00;0.62;0.00;0.00;0.62;5.80;5.20;;;26.80;40.60;;;;;;2229784;62;20840;-67
2022/09/08 11:02:33;0.00;0.00;0.62;0.00;0.00;0.62;4.53;4.13;;;26.70;39.80;;;;;;2229647;62;20741;-66
2022/09/08 11:05:47;0.00;0.00;0.62;0.00;0.00;0.62;5.30;4.80;;;26.70;40.60;;;;;;2232371;62;20627;-64
2022/09/08 11:09:06;0.00;0.00;0.62;0.00;0.00;0.62;5.40;4.30;;;26.70;40.00;;;;;;2230014;62;20965;-64
2022/09/08 11:12:25;0.00;0.00;0.62;0.00;0.00;0.62;5.40;4.47;;;26.70;40.10;;;;;;2229879;62;20460;-63
2022/09/08 11:16:02;0.00;0.00;0.62;0.00;0.00;0.62;5.47;4.70;;;26.70;40.20;;;;;;2229606;62;20387;-64
2022/09/08 11:19:06;0.00;0.00;0.62;0.00;0.00;0.62;6.03;5.33;;;26.70;40.30;;;;;;2229719;62;20365;-66
2022/09/08 11:22:23;0.00;0.00;0.62;0.00;0.00;0.62;6.10;5.50;;;26.70;41.00;;;;;;2233725;62;20360;-68
2022/09/08 11:25:33;0.00;0.00;0.62;0.00;0.00;0.62;5.63;4.97;;;26.70;40.40;;;;;;2229045;62;20396;-66
2022/09/08 11:28:39;0.00;0.00;0.62;0.00;0.00;0.62;6.87;6.07;;;26.60;40.40;;;;;;2232658;62;20432;-65
2022/09/08 11:31:36;0.00;0.00;0.62;0.00;0.00;0.62;6.30;4.67;;;26.60;40.60;;;;;;2269071;54;20437;-68
2022/09/08 11:34:48;0.00;0.00;0.62;0.00;0.00;0.62;5.87;5.37;;;26.60;40.80;;;;;;2276697;58;20437;-64
2022/09/08 11:38:03;0.00;0.00;0.62;0.00;0.00;0.62;5.33;4.33;;;26.60;41.00;;;;;;2230863;62;20372;-64
2022/09/08 11:41:27;0.00;0.00;0.62;0.00;0.00;0.62;6.53;4.63;;;26.50;40.90;;;;;;2233116;62;20434;-64